createdAt,value
2022-09-21T00:01:32.094Z,100168.69
2022-09-21T00:04:04.144Z,100159.91
2022-09-21T00:06:34.635Z,100170.47
2022-09-21T00:09:03.987Z,100169.66
2022-09-21T00:11:33.842Z,100165.34
2022-09-21T00:14:13.093Z,100176.59
2022-09-21T00:16:43.255Z,100173.94
2022-09-21T00:19:12.089Z,100173.72
2022-09-21T00:21:39.748Z,100172.72
2022-09-21T00:24:07.693Z,100177.88
2022-09-21T00:26:35.044Z,100176.97
2022-09-21T00:29:04.473Z,100177.81
2022-09-21T00:31:32.995Z,100177.88
2022-09-21T00:34:01.025Z,100174.16
2022-09-21T00:36:29.722Z,100181.97
2022-09-21T00:39:02.018Z,100172.44
2022-09-21T00:41:33.447Z,100170.66
2022-09-21T00:44:29.061Z,100178.34
2022-09-21T00:47:13.443Z,100178.34
2022-09-21T00:49:45.653Z,100177.44
2022-09-21T00:52:14.875Z,100185.28
2022-09-21T00:55:31.098Z,100184.31
2022-09-21T00:58:09.230Z,100183.16
2022-09-21T01:00:40.531Z,100186.63
2022-09-21T01:03:10.869Z,100182.38
2022-09-21T01:05:38.185Z,100184.94
2022-09-21T01:08:10.013Z,100192.00
2022-09-21T01:11:31.221Z,100192.78
2022-09-21T01:14:04.211Z,100192.44
2022-09-21T01:17:16.247Z,100189.88
2022-09-21T01:20:13.460Z,100191.66
2022-09-21T01:23:30.734Z,100185.41
2022-09-21T01:26:38.156Z,100188.09
2022-09-21T01:29:31.640Z,100188.91
2022-09-21T01:32:36.577Z,100184.56
2022-09-21T01:35:28.949Z,100187.00
2022-09-21T01:38:21.013Z,100190.59
2022-09-21T01:40:56.747Z,100193.00
2022-09-21T01:43:39.405Z,100194.69
2022-09-21T01:46:15.281Z,100195.47
2022-09-21T01:48:52.568Z,100187.75
2022-09-21T01:51:25.225Z,100191.09
2022-09-21T01:54:25.949Z,100197.25
2022-09-21T01:57:12.211Z,100190.97
2022-09-21T01:59:57.803Z,100191.81
2022-09-21T02:02:38.186Z,100198.16
2022-09-21T02:05:07.093Z,100196.28
2022-09-21T02:07:35.896Z,100198.88
2022-09-21T02:10:07.878Z,100197.13
2022-09-21T02:12:35.543Z,100206.63
2022-09-21T02:15:03.811Z,100200.56
2022-09-21T02:18:08.096Z,100198.56
2022-09-21T02:20:54.398Z,100202.84
2022-09-21T02:23:43.701Z,100203.88
2022-09-21T02:26:31.916Z,100203.13
2022-09-21T02:29:09.014Z,100206.63
2022-09-21T02:32:05.362Z,100204.97
2022-09-21T02:34:47.234Z,100210.25
2022-09-21T02:37:47.369Z,100203.84
2022-09-21T02:40:54.121Z,100207.31
2022-09-21T02:43:35.448Z,100216.94
2022-09-21T02:46:26.883Z,100207.00
2022-09-21T02:49:08.722Z,100211.31
2022-09-21T02:51:51.116Z,100214.13
2022-09-21T02:54:26.996Z,100219.31
2022-09-21T02:56:55.573Z,100214.84
2022-09-21T02:59:23.645Z,100219.94
2022-09-21T03:01:52.364Z,100221.72
2022-09-21T03:04:19.893Z,100221.59
2022-09-21T03:06:47.196Z,100222.69
2022-09-21T03:09:14.487Z,100220.28
2022-09-21T03:11:44.673Z,100225.31
2022-09-21T03:14:12.080Z,100220.78
2022-09-21T03:16:39.653Z,100225.31
2022-09-21T03:19:06.969Z,100220.22
2022-09-21T03:21:34.650Z,100222.13
2022-09-21T03:24:02.590Z,100227.69
2022-09-21T03:26:30.028Z,100227.69
2022-09-21T03:28:57.616Z,100227.81
2022-09-21T03:31:25.089Z,100226.16
2022-09-21T03:33:52.666Z,100225.13
2022-09-21T03:36:21.121Z,100228.78
2022-09-21T03:38:48.585Z,100238.28
2022-09-21T03:41:15.892Z,100241.81
2022-09-21T03:43:43.072Z,100234.66
2022-09-21T03:46:10.709Z,100239.38
2022-09-21T03:48:39.249Z,100242.19
2022-09-21T03:51:06.596Z,100244.00
2022-09-21T03:53:33.859Z,100244.31
2022-09-21T03:56:01.461Z,100249.69
2022-09-21T03:58:28.772Z,100252.56
2022-09-21T04:01:03.524Z,100255.31
2022-09-21T04:03:31.086Z,100251.06
2022-09-21T04:05:58.600Z,100257.34
2022-09-21T04:08:26.327Z,100260.38
2022-09-21T04:10:53.958Z,100262.34
2022-09-21T04:13:21.481Z,100263.34
2022-09-21T04:15:48.874Z,100263.41
2022-09-21T04:18:17.222Z,100266.97
2022-09-21T04:20:44.549Z,100275.84
2022-09-21T04:23:11.969Z,100281.34
2022-09-21T04:25:39.144Z,100282.94
2022-09-21T04:28:06.511Z,100288.88
2022-09-21T04:30:37.806Z,100310.81
2022-09-21T04:33:05.329Z,100322.75
2022-09-21T04:35:32.633Z,100327.34
2022-09-21T04:37:59.880Z,100335.69
2022-09-21T04:40:28.238Z,100339.94
2022-09-21T04:42:55.851Z,100336.16
2022-09-21T04:45:24.253Z,100340.41
2022-09-21T04:47:51.669Z,100352.50
2022-09-21T04:50:19.845Z,100352.41
2022-09-21T04:52:47.756Z,100348.78
2022-09-21T04:55:15.527Z,100352.16
2022-09-21T04:57:42.838Z,100360.19
2022-09-21T05:00:11.455Z,100366.25
2022-09-21T05:02:38.758Z,100364.59
2022-09-21T05:05:06.733Z,100367.34
2022-09-21T05:07:33.973Z,100366.50
2022-09-21T05:10:04.281Z,100368.19
2022-09-21T05:12:33.919Z,100377.88
2022-09-21T05:15:01.950Z,100376.91
2022-09-21T05:17:29.329Z,100380.34
2022-09-21T05:19:56.633Z,100386.47
2022-09-21T05:22:24.968Z,100384.69
2022-09-21T05:24:52.261Z,100380.41
2022-09-21T05:27:19.489Z,100382.97
2022-09-21T05:29:47.313Z,100385.72
2022-09-21T05:32:30.021Z,100385.50
2022-09-21T05:35:36.415Z,100381.94
2022-09-21T05:38:20.268Z,100379.13
2022-09-21T05:40:50.156Z,100376.31
2022-09-21T05:43:18.325Z,100380.47
2022-09-21T05:46:04.009Z,100372.50
2022-09-21T05:48:43.267Z,100378.59
2022-09-21T05:51:45.043Z,100389.84
2022-09-21T05:54:29.569Z,100403.00
2022-09-21T05:57:16.844Z,100398.81
2022-09-21T06:00:06.979Z,100422.72
2022-09-21T06:03:15.515Z,100424.44
2022-09-21T06:05:44.777Z,100431.50
2022-09-21T06:08:12.055Z,100429.81
2022-09-21T06:10:39.313Z,100430.72
2022-09-21T06:13:06.555Z,100437.91
2022-09-21T06:15:38.389Z,100438.81
2022-09-21T06:18:08.105Z,100439.88
2022-09-21T06:20:35.672Z,100440.00
2022-09-21T06:23:10.199Z,100442.81
2022-09-21T06:25:38.117Z,100444.34
2022-09-21T06:28:13.002Z,100449.34
2022-09-21T06:30:42.863Z,100457.31
2022-09-21T06:33:10.597Z,100454.69
2022-09-21T06:35:38.059Z,100461.81
2022-09-21T06:38:08.191Z,100463.41
2022-09-21T06:40:37.452Z,100469.56
2022-09-21T06:43:06.304Z,100468.91
2022-09-21T06:45:33.825Z,100474.38
2022-09-21T06:48:01.487Z,100478.03
2022-09-21T06:50:29.937Z,100477.78
2022-09-21T06:53:01.411Z,100476.88
2022-09-21T06:55:32.934Z,100487.59
2022-09-21T06:58:05.224Z,100484.34
2022-09-21T07:00:32.997Z,100484.09
2022-09-21T07:03:00.879Z,100486.16
2022-09-21T07:05:28.112Z,100479.22
2022-09-21T07:07:59.298Z,100476.38
2022-09-21T07:10:27.180Z,100487.38
2022-09-21T07:12:54.592Z,100485.22
2022-09-21T07:15:22.088Z,100479.44
2022-09-21T07:17:52.391Z,100476.94
2022-09-21T07:20:20.144Z,100481.00
2022-09-21T07:22:48.429Z,100488.28
2022-09-21T07:25:16.451Z,100488.16
2022-09-21T07:27:43.717Z,100494.00
2022-09-21T07:30:11.981Z,100504.66
2022-09-21T07:32:39.162Z,100504.59
2022-09-21T07:35:07.388Z,100503.16
2022-09-21T07:37:34.608Z,100512.72
2022-09-21T07:40:05.941Z,100511.81
2022-09-21T07:42:33.371Z,100510.53
2022-09-21T07:45:04.888Z,100509.59
2022-09-21T07:47:35.058Z,100517.91
2022-09-21T07:50:02.443Z,100513.38
2022-09-21T07:52:29.685Z,100529.09
2022-09-21T07:54:57.005Z,100525.66
2022-09-21T07:57:43.109Z,100533.63
2022-09-21T08:00:11.598Z,100535.75
2022-09-21T08:02:46.794Z,100537.19
2022-09-21T08:05:15.540Z,100538.44
2022-09-21T08:07:42.921Z,100546.66
2022-09-21T08:10:10.869Z,100542.13
2022-09-21T08:12:38.130Z,100541.78
2022-09-21T08:15:06.428Z,100546.31
2022-09-21T08:17:33.801Z,100546.50
2022-09-21T08:20:01.812Z,100551.00
2022-09-21T08:22:29.060Z,100551.47
2022-09-21T08:24:57.119Z,100551.53
2022-09-21T08:27:27.305Z,100541.81
2022-09-21T08:29:54.500Z,100542.25
2022-09-21T08:32:46.606Z,100544.06
2022-09-21T08:35:09.562Z,100536.06
2022-09-21T08:37:37.877Z,100547.19
2022-09-21T08:40:07.698Z,100541.44
2022-09-21T08:43:08.781Z,100543.66
2022-09-21T08:45:44.663Z,100549.69
2022-09-21T08:48:34.419Z,100558.25
2022-09-21T08:51:09.606Z,100557.84
2022-09-21T08:53:44.452Z,100552.75
2022-09-21T08:56:14.475Z,100559.22
2022-09-21T08:58:43.501Z,100558.03
2022-09-21T09:02:13.718Z,100549.19
2022-09-21T09:05:25.809Z,100559.94
2022-09-21T09:08:54.713Z,100556.97
2022-09-21T09:11:55.287Z,100538.13
2022-09-21T09:14:35.355Z,100551.56
2022-09-21T09:17:37.214Z,100557.22
2022-09-21T09:20:43.672Z,100550.50
2022-09-21T09:23:35.090Z,100551.31
2022-09-21T09:26:24.601Z,100555.44
2022-09-21T09:29:02.758Z,100547.50
2022-09-21T09:31:37.448Z,100554.03
2022-09-21T09:34:32.668Z,100558.16
2022-09-21T09:37:20.635Z,100556.78
2022-09-21T09:39:57.651Z,100546.91
2022-09-21T09:43:09.296Z,100551.69
2022-09-21T09:45:55.123Z,100550.94
2022-09-21T09:49:17.452Z,100551.50
2022-09-21T09:51:45.374Z,100549.41
2022-09-21T09:54:26.712Z,100549.00
2022-09-21T09:56:55.148Z,100549.00
2022-09-21T09:59:39.680Z,100555.69
2022-09-21T10:02:20.282Z,100557.59
2022-09-21T10:05:06.045Z,100553.19
2022-09-21T10:07:40.472Z,100555.06
2022-09-21T10:10:36.274Z,100553.34
2022-09-21T10:13:40.209Z,100556.03
2022-09-21T10:16:14.472Z,100554.78
2022-09-21T10:19:01.575Z,100549.41
2022-09-21T10:21:45.076Z,100542.31
2022-09-21T10:24:33.519Z,100544.75
2022-09-21T10:27:11.813Z,100545.66
2022-09-21T10:29:48.908Z,100541.72
2022-09-21T10:32:18.625Z,100539.88
2022-09-21T10:35:05.327Z,100539.47
2022-09-21T10:37:42.722Z,100540.72
2022-09-21T10:40:23.383Z,100539.66
2022-09-21T10:42:56.016Z,100545.06
2022-09-21T10:45:37.171Z,100541.25
2022-09-21T10:48:17.685Z,100544.50
2022-09-21T10:50:51.100Z,100534.22
2022-09-21T10:53:31.600Z,100529.53
2022-09-21T10:56:17.447Z,100531.91
2022-09-21T10:59:37.049Z,100524.53
2022-09-21T11:02:33.166Z,100534.53
2022-09-21T11:05:15.427Z,100537.91
2022-09-21T11:07:57.161Z,100537.47
2022-09-21T11:11:02.631Z,100535.75
2022-09-21T11:13:38.667Z,100532.75
2022-09-21T11:16:39.839Z,100531.78
2022-09-21T11:19:44.326Z,100532.13
2022-09-21T11:22:57.580Z,100525.19
2022-09-21T11:25:53.581Z,100519.66
2022-09-21T11:28:43.571Z,100525.34
2022-09-21T11:31:52.845Z,100518.59
2022-09-21T11:35:01.052Z,100511.66
2022-09-21T11:38:13.398Z,100506.03
2022-09-21T11:41:36.539Z,100504.78
2022-09-21T11:44:42.572Z,100499.13
2022-09-21T11:47:45.998Z,100496.53
2022-09-21T11:54:03.993Z,100490.78
2022-09-21T11:56:47.440Z,100483.69
2022-09-21T11:59:46.239Z,100482.25
2022-09-21T12:05:50.464Z,100483.47
2022-09-21T12:09:35.654Z,100491.47
2022-09-21T12:12:20.808Z,100487.03
2022-09-21T12:15:11.586Z,100472.72
2022-09-21T12:18:18.970Z,100470.00
2022-09-21T12:21:01.304Z,100473.97
2022-09-21T12:23:49.140Z,100467.03
2022-09-21T12:26:50.395Z,100460.47
2022-09-21T12:29:37.162Z,100454.06
2022-09-21T12:32:26.539Z,100450.84
2022-09-21T12:35:02.547Z,100454.44
2022-09-21T12:37:47.353Z,100454.53
2022-09-21T12:40:59.860Z,100449.06
2022-09-21T12:44:23.081Z,100447.16
2022-09-21T12:47:09.722Z,100444.72
2022-09-21T12:49:48.085Z,100443.72
2022-09-21T12:52:25.527Z,100444.72
2022-09-21T12:55:36.924Z,100449.81
2022-09-21T12:58:20.016Z,100442.88
2022-09-21T13:01:25.018Z,100440.41
2022-09-21T13:04:16.721Z,100439.38
2022-09-21T13:07:43.795Z,100438.88
2022-09-21T13:10:31.419Z,100436.06
2022-09-21T13:13:03.411Z,100449.13
2022-09-21T13:15:44.102Z,100438.16
2022-09-21T13:18:36.277Z,100445.06
2022-09-21T13:21:28.016Z,100446.88
2022-09-21T13:24:03.999Z,100437.22
2022-09-21T13:26:53.919Z,100432.84
2022-09-21T13:29:21.703Z,100426.53
2022-09-21T13:32:00.339Z,100416.31
2022-09-21T13:34:39.932Z,100426.03
2022-09-21T13:37:16.721Z,100418.28
2022-09-21T13:40:02.237Z,100419.22
2022-09-21T13:42:29.723Z,100410.59
2022-09-21T13:45:22.906Z,100409.03
2022-09-21T13:48:00.206Z,100411.09
2022-09-21T13:50:42.839Z,100412.81
2022-09-21T13:53:32.371Z,100410.19
2022-09-21T13:56:20.276Z,100412.78
2022-09-21T13:58:52.222Z,100407.50
2022-09-21T14:01:51.261Z,100411.66
2022-09-21T14:04:32.861Z,100410.50
2022-09-21T14:07:07.215Z,100403.50
2022-09-21T14:09:57.284Z,100404.53
2022-09-21T14:12:27.635Z,100403.91
2022-09-21T14:15:16.593Z,100407.44
2022-09-21T14:17:45.480Z,100396.88
2022-09-21T14:20:38.634Z,100397.13
2022-09-21T14:23:16.337Z,100400.81
2022-09-21T14:25:56.519Z,100397.22
2022-09-21T14:28:52.082Z,100393.72
2022-09-21T14:31:31.220Z,100397.50
2022-09-21T14:34:03.912Z,100385.25
2022-09-21T14:36:47.289Z,100392.50
2022-09-21T14:39:37.403Z,100395.84
2022-09-21T14:42:20.043Z,100393.69
2022-09-21T14:44:51.606Z,100394.97
2022-09-21T14:47:50.324Z,100387.63
2022-09-21T14:51:20.678Z,100381.06
2022-09-21T14:54:12.513Z,100382.06
2022-09-21T14:57:12.679Z,100380.88
2022-09-21T15:00:14.356Z,100374.16
2022-09-21T15:02:44.533Z,100376.91
2022-09-21T15:05:37.169Z,100378.56
2022-09-21T15:08:45.652Z,100368.66
2022-09-21T15:11:37.109Z,100366.06
2022-09-21T15:14:35.105Z,100365.56
2022-09-21T15:17:32.376Z,100360.75
2022-09-21T15:20:15.738Z,100355.34
2022-09-21T15:22:44.099Z,100358.72
2022-09-21T15:25:14.645Z,100361.34
2022-09-21T15:27:46.653Z,100358.88
2022-09-21T15:30:28.592Z,100364.22
2022-09-21T15:33:02.284Z,100359.78
2022-09-21T15:35:33.725Z,100355.09
2022-09-21T15:38:01.614Z,100356.97
2022-09-21T15:40:36.222Z,100358.88
2022-09-21T15:43:15.765Z,100362.44
2022-09-21T15:46:12.168Z,100360.66
2022-09-21T15:48:42.191Z,100362.28
2022-09-21T15:51:35.703Z,100366.63
2022-09-21T15:54:36.711Z,100363.16
2022-09-21T15:57:25.286Z,100354.19
2022-09-21T15:59:53.929Z,100362.06
2022-09-21T16:02:27.055Z,100361.25
2022-09-21T16:04:54.547Z,100364.63
2022-09-21T16:07:36.109Z,100352.22
2022-09-21T16:10:30.085Z,100358.84
2022-09-21T16:13:31.075Z,100356.19
2022-09-21T16:16:14.728Z,100359.78
2022-09-21T16:18:59.531Z,100357.97
2022-09-21T16:21:37.694Z,100361.31
2022-09-21T16:24:20.040Z,100364.72
2022-09-21T16:27:01.336Z,100365.25
2022-09-21T16:29:44.603Z,100363.44
2022-09-21T16:32:17.968Z,100369.38
2022-09-21T16:34:51.189Z,100376.59
2022-09-21T16:37:28.625Z,100370.75
2022-09-21T16:39:59.265Z,100368.34
2022-09-21T16:42:32.778Z,100380.13
2022-09-21T16:45:01.025Z,100381.22
2022-09-21T16:47:28.977Z,100379.06
2022-09-21T16:50:02.664Z,100386.63
2022-09-21T16:52:31.447Z,100389.63
2022-09-21T16:54:58.829Z,100391.16
2022-09-21T16:57:26.835Z,100392.53
2022-09-21T16:59:54.659Z,100388.59
2022-09-21T17:02:22.002Z,100391.06
2022-09-21T17:04:49.329Z,100395.28
2022-09-21T17:07:18.610Z,100399.44
2022-09-21T17:09:47.836Z,100399.91
2022-09-21T17:12:18.204Z,100396.97
2022-09-21T17:14:47.337Z,100392.34
2022-09-21T17:17:25.054Z,100400.75
2022-09-21T17:19:54.040Z,100396.16
2022-09-21T17:22:21.898Z,100400.44
2022-09-21T17:24:52.526Z,100399.31
2022-09-21T17:27:25.287Z,100397.31
2022-09-21T17:29:53.850Z,100404.09
2022-09-21T17:32:24.620Z,100400.34
2022-09-21T17:35:35.685Z,100405.41
2022-09-21T17:38:02.974Z,100411.19
2022-09-21T17:40:31.376Z,100416.19
2022-09-21T17:43:47.751Z,100415.00
2022-09-21T17:46:55.027Z,100414.78
2022-09-21T17:49:22.683Z,100426.00
2022-09-21T17:52:08.913Z,100431.31
2022-09-21T17:54:39.770Z,100433.69
2022-09-21T17:57:40.978Z,100435.19
2022-09-21T18:00:27.757Z,100435.63
2022-09-21T18:02:55.519Z,100437.16
2022-09-21T18:05:29.610Z,100442.25
2022-09-21T18:07:57.736Z,100441.16
2022-09-21T18:10:27.146Z,100440.16
2022-09-21T18:13:19.592Z,100441.81
2022-09-21T18:15:49.312Z,100455.66
2022-09-21T18:19:17.013Z,100458.00
2022-09-21T18:21:50.524Z,100460.63
2022-09-21T18:24:31.713Z,100459.47
2022-09-21T18:27:00.780Z,100472.47
2022-09-21T18:29:42.015Z,100474.03
2022-09-21T18:32:49.320Z,100475.66
2022-09-21T18:36:05.985Z,100479.00
2022-09-21T18:39:01.026Z,100484.06
2022-09-21T18:42:18.904Z,100482.25
2022-09-21T18:45:00.950Z,100487.91
2022-09-21T18:47:59.289Z,100490.38
2022-09-21T18:51:22.816Z,100494.63
2022-09-21T18:53:56.344Z,100498.06
2022-09-21T18:56:34.024Z,100488.25
2022-09-21T18:59:02.785Z,100502.16
2022-09-21T19:01:33.739Z,100497.78
2022-09-21T19:04:01.895Z,100500.94
2022-09-21T19:07:32.862Z,100499.19
2022-09-21T19:10:24.981Z,100506.09
2022-09-21T19:13:36.211Z,100503.53
2022-09-21T19:16:24.712Z,100505.06
2022-09-21T19:19:06.813Z,100508.56
2022-09-21T19:22:04.351Z,100506.53
2022-09-21T19:25:14.360Z,100512.53
2022-09-21T19:28:02.954Z,100521.88
2022-09-21T19:30:30.652Z,100519.72
2022-09-21T19:32:59.548Z,100521.94
2022-09-21T19:35:33.976Z,100519.25
2022-09-21T19:38:03.765Z,100523.09
2022-09-21T19:40:37.626Z,100524.88
2022-09-21T19:44:09.217Z,100522.84
2022-09-21T19:47:29.266Z,100530.53
2022-09-21T19:50:28.368Z,100528.56
2022-09-21T19:53:16.381Z,100530.41
2022-09-21T19:56:04.183Z,100523.31
2022-09-21T19:58:50.658Z,100526.66
2022-09-21T20:01:21.267Z,100533.25
2022-09-21T20:03:49.096Z,100532.13
2022-09-21T20:06:34.251Z,100541.38
2022-09-21T20:09:29.229Z,100538.69
2022-09-21T20:12:22.815Z,100532.38
2022-09-21T20:14:49.867Z,100537.66
2022-09-21T20:17:33.927Z,100538.63
2022-09-21T20:20:29.055Z,100528.16
2022-09-21T20:22:56.901Z,100533.53
2022-09-21T20:25:50.819Z,100539.59
2022-09-21T20:28:18.747Z,100541.25
2022-09-21T20:30:46.260Z,100540.94
2022-09-21T20:33:21.293Z,100539.84
2022-09-21T20:35:55.338Z,100544.84
2022-09-21T20:38:23.183Z,100542.91
2022-09-21T20:40:51.540Z,100545.38
2022-09-21T20:43:19.529Z,100553.91
2022-09-21T20:45:50.206Z,100558.41
2022-09-21T20:48:17.556Z,100560.50
2022-09-21T20:50:51.015Z,100559.25
2022-09-21T20:53:19.230Z,100562.97
2022-09-21T20:55:58.543Z,100564.50
2022-09-21T20:58:26.161Z,100565.41
2022-09-21T21:00:58.757Z,100562.47
2022-09-21T21:03:26.376Z,100569.06
2022-09-21T21:05:53.645Z,100582.81
2022-09-21T21:08:20.984Z,100579.00
2022-09-21T21:10:48.211Z,100580.06
2022-09-21T21:13:15.433Z,100586.97
2022-09-21T21:15:42.615Z,100586.44
2022-09-21T21:18:12.349Z,100587.50
2022-09-21T21:20:41.006Z,100599.94
2022-09-21T21:23:09.274Z,100601.38
2022-09-21T21:25:36.547Z,100597.63
2022-09-21T21:28:04.253Z,100593.63
2022-09-21T21:30:31.657Z,100600.00
2022-09-21T21:32:58.942Z,100596.50
2022-09-21T21:35:26.299Z,100595.59
2022-09-21T21:37:53.921Z,100600.81
2022-09-21T21:40:21.224Z,100594.25
2022-09-21T21:42:48.510Z,100598.34
2022-09-21T21:45:15.887Z,100597.38
2022-09-21T21:47:43.106Z,100595.72
2022-09-21T21:50:11.143Z,100596.91
2022-09-21T21:52:39.055Z,100592.28
2022-09-21T21:55:07.864Z,100593.00
2022-09-21T21:57:35.057Z,100593.00
2022-09-21T22:00:02.675Z,100604.97
2022-09-21T22:02:32.045Z,100606.41
2022-09-21T22:04:59.196Z,100601.84
2022-09-21T22:07:26.580Z,100605.25
2022-09-21T22:09:53.904Z,100611.19
2022-09-21T22:12:21.983Z,100602.69
2022-09-21T22:14:49.357Z,100603.50
2022-09-21T22:17:16.599Z,100602.47
2022-09-21T22:19:44.004Z,100599.91
2022-09-21T22:22:11.212Z,100603.22
2022-09-21T22:24:38.503Z,100602.09
2022-09-21T22:27:05.744Z,100604.97
2022-09-21T22:29:32.987Z,100605.97
2022-09-21T22:32:00.502Z,100605.53
2022-09-21T22:34:27.780Z,100605.53
2022-09-21T22:36:56.336Z,100607.94
2022-09-21T22:39:23.584Z,100604.25
2022-09-21T22:41:50.762Z,100601.63
2022-09-21T22:44:18.116Z,100598.47
2022-09-21T22:46:45.253Z,100615.31
2022-09-21T22:49:12.422Z,100604.94
2022-09-21T22:51:39.702Z,100609.47
2022-09-21T22:54:07.143Z,100614.63
2022-09-21T22:56:34.979Z,100616.22
2022-09-21T22:59:05.172Z,100605.19
2022-09-21T23:01:40.176Z,100614.88
2022-09-21T23:04:13.539Z,100611.78
2022-09-21T23:06:44.044Z,100608.88
2022-09-21T23:09:19.707Z,100628.09
2022-09-21T23:11:53.173Z,100623.72
2022-09-21T23:14:22.368Z,100624.16
2022-09-21T23:16:50.208Z,100628.50
2022-09-21T23:19:17.653Z,100618.63
2022-09-21T23:21:50.160Z,100614.91
2022-09-21T23:24:19.318Z,100608.72
2022-09-21T23:26:47.710Z,100612.75
2022-09-21T23:29:15.992Z,100619.63
2022-09-21T23:31:45.790Z,100625.88
2022-09-21T23:34:15.525Z,100612.59
2022-09-21T23:36:44.444Z,100616.63
2022-09-21T23:39:14.802Z,100612.59
2022-09-21T23:41:42.869Z,100611.44
2022-09-21T23:44:10.203Z,100616.94
2022-09-21T23:46:39.586Z,100611.44
2022-09-21T23:49:07.823Z,100615.75
2022-09-21T23:51:35.706Z,100612.38
2022-09-21T23:54:03.504Z,100618.44
2022-09-21T23:56:32.051Z,100614.06
2022-09-21T23:59:00.411Z,100614.06
